Nazare Paulista, Brazil
Current Conditions -  °F | °C
As of 4:00 AM on Thursday 23 Oct 2014 (Local Time) from SBGR Reporting Station
Overcast Overcast  
Wind Chill: 61°   Ceiling: 1700
Heat Index: 61°   Visibility: 6mi
Dew Point: 55°   Wind: 7mph
Humidity: 82%   Direction: 90°E
Pressure: 30.15"   Gusts: NA
Location:  23.18°S, 46.4°W
Report Text: SBGR 230600Z 09006KT 9999 OVC017 16/13 Q1021
Loading
Personal Weather Stations






























Interactive Weather Map
Tropical Storm Tracking
New forecast layout! Learn more

10-Day Weather Forecast

Advertisements
Track Severe Weather on mobile